Norwood, Canada
Current Conditions -  °F | °C
As of 9:00 AM on Monday 22 Dec 2014 (Local Time) from CYPQ Reporting Station
Haze Haze  
Wind Chill: 19°   Ceiling: 2100
Heat Index: 27°   Visibility: 3mi
Dew Point: 25°   Wind: 7mph
Humidity: 93%   Direction: 80°E
Pressure: 30.25"   Gusts: NA
Location:  44.38°N, 77.98°W
Report Text: CYPQ 221400Z AUTO 08006KT 3SM BR OVC021 M03/M04 A3025 RMK SLP253
Loading
Personal Weather Stations






























Interactive Weather Map New forecast layout! Learn more

10-Day Weather Forecast

Advertisements
Track Severe Weather on mobile